sensor_id;sensor_type;location;lat;lon;timestamp;temperature;humidity
36442;DHT22;73131;50.820;16.274;2024-03-25T00:02:04;4.40;99.90
36442;DHT22;73131;50.820;16.274;2024-03-25T00:05:08;4.50;99.90
36442;DHT22;73131;50.820;16.274;2024-03-25T00:08:15;4.50;99.90
36442;DHT22;73131;50.820;16.274;2024-03-25T00:11:18;4.50;99.90
36442;DHT22;73131;50.820;16.274;2024-03-25T00:14:23;4.50;99.90
36442;DHT22;73131;50.820;16.274;2024-03-25T00:17:24;4.50;99.90
36442;DHT22;73131;50.820;16.274;2024-03-25T00:20:27;4.50;99.90
36442;DHT22;73131;50.820;16.274;2024-03-25T00:23:31;4.40;99.90
36442;DHT22;73131;50.820;16.274;2024-03-25T00:26:34;4.40;99.90
36442;DHT22;73131;50.820;16.274;2024-03-25T00:29:35;4.40;99.90
36442;DHT22;73131;50.820;16.274;2024-03-25T00:32:36;4.50;99.90
36442;DHT22;73131;50.820;16.274;2024-03-25T00:35:37;4.50;99.90
36442;DHT22;73131;50.820;16.274;2024-03-25T00:38:41;4.50;99.90
36442;DHT22;73131;50.820;16.274;2024-03-25T00:41:44;4.50;99.90
36442;DHT22;73131;50.820;16.274;2024-03-25T00:44:45;4.50;99.90
36442;DHT22;73131;50.820;16.274;2024-03-25T00:47:46;4.50;99.90
36442;DHT22;73131;50.820;16.274;2024-03-25T00:50:50;4.50;99.90
36442;DHT22;73131;50.820;16.274;2024-03-25T00:53:51;4.50;99.90
36442;DHT22;73131;50.820;16.274;2024-03-25T00:56:54;4.50;99.90
36442;DHT22;73131;50.820;16.274;2024-03-25T00:59:57;4.50;99.90
36442;DHT22;73131;50.820;16.274;2024-03-25T01:02:59;4.40;99.90
36442;DHT22;73131;50.820;16.274;2024-03-25T01:06:02;4.40;99.90
36442;DHT22;73131;50.820;16.274;2024-03-25T01:09:05;4.40;99.90
36442;DHT22;73131;50.820;16.274;2024-03-25T01:12:08;4.30;99.90
36442;DHT22;73131;50.820;16.274;2024-03-25T01:15:09;4.30;99.90
36442;DHT22;73131;50.820;16.274;2024-03-25T01:18:13;4.30;99.90
36442;DHT22;73131;50.820;16.274;2024-03-25T01:21:14;4.40;99.90
36442;DHT22;73131;50.820;16.274;2024-03-25T01:24:15;4.40;99.90
36442;DHT22;73131;50.820;16.274;2024-03-25T01:27:19;4.50;99.90
36442;DHT22;73131;50.820;16.274;2024-03-25T01:30:20;4.50;99.90
36442;DHT22;73131;50.820;16.274;2024-03-25T01:33:21;4.50;99.90
36442;DHT22;73131;50.820;16.274;2024-03-25T01:36:22;4.50;99.90
36442;DHT22;73131;50.820;16.274;2024-03-25T01:39:29;4.50;99.90
36442;DHT22;73131;50.820;16.274;2024-03-25T01:42:30;4.50;99.90
36442;DHT22;73131;50.820;16.274;2024-03-25T01:45:37;4.40;99.90
36442;DHT22;73131;50.820;16.274;2024-03-25T01:48:38;4.40;99.90
36442;DHT22;73131;50.820;16.274;2024-03-25T01:51:42;4.40;99.90
36442;DHT22;73131;50.820;16.274;2024-03-25T01:54:45;4.40;99.90
36442;DHT22;73131;50.820;16.274;2024-03-25T01:57:47;4.40;99.90
36442;DHT22;73131;50.820;16.274;2024-03-25T02:00:49;4.40;99.90
36442;DHT22;73131;50.820;16.274;2024-03-25T02:03:52;4.40;99.90
36442;DHT22;73131;50.820;16.274;2024-03-25T02:06:55;4.40;99.90
36442;DHT22;73131;50.820;16.274;2024-03-25T02:09:59;4.40;99.90
36442;DHT22;73131;50.820;16.274;2024-03-25T02:13:00;4.40;99.90
36442;DHT22;73131;50.820;16.274;2024-03-25T02:16:02;4.50;99.90
36442;DHT22;73131;50.820;16.274;2024-03-25T02:19:03;4.50;99.90
36442;DHT22;73131;50.820;16.274;2024-03-25T02:22:06;4.50;99.90
36442;DHT22;73131;50.820;16.274;2024-03-25T02:25:09;4.40;99.90
36442;DHT22;73131;50.820;16.274;2024-03-25T02:28:10;4.50;99.90
36442;DHT22;73131;50.820;16.274;2024-03-25T02:31:11;4.40;99.90
36442;DHT22;73131;50.820;16.274;2024-03-25T02:34:15;4.50;99.90
36442;DHT22;73131;50.820;16.274;2024-03-25T02:37:18;4.50;99.90
36442;DHT22;73131;50.820;16.274;2024-03-25T02:40:25;4.50;99.90
36442;DHT22;73131;50.820;16.274;2024-03-25T02:43:26;4.50;99.90
36442;DHT22;73131;50.820;16.274;2024-03-25T02:46:28;4.60;99.90
36442;DHT22;73131;50.820;16.274;2024-03-25T02:49:29;4.60;99.90
36442;DHT22;73131;50.820;16.274;2024-03-25T02:52:33;4.70;99.90
36442;DHT22;73131;50.820;16.274;2024-03-25T02:55:34;4.70;99.90
36442;DHT22;73131;50.820;16.274;2024-03-25T02:58:37;4.70;99.90
36442;DHT22;73131;50.820;16.274;2024-03-25T03:01:38;4.70;99.90
36442;DHT22;73131;50.820;16.274;2024-03-25T03:04:39;4.70;99.90
36442;DHT22;73131;50.820;16.274;2024-03-25T03:07:40;4.70;99.90
36442;DHT22;73131;50.820;16.274;2024-03-25T03:10:43;4.70;99.90
36442;DHT22;73131;50.820;16.274;2024-03-25T03:13:44;4.70;99.90
36442;DHT22;73131;50.820;16.274;2024-03-25T03:16:45;4.70;99.90
36442;DHT22;73131;50.820;16.274;2024-03-25T03:19:46;4.70;99.90
36442;DHT22;73131;50.820;16.274;2024-03-25T03:22:49;4.70;99.90
36442;DHT22;73131;50.820;16.274;2024-03-25T03:25:52;4.70;99.90
36442;DHT22;73131;50.820;16.274;2024-03-25T03:28:58;4.70;99.90
36442;DHT22;73131;50.820;16.274;2024-03-25T03:31:59;4.70;99.90
36442;DHT22;73131;50.820;16.274;2024-03-25T03:35:02;4.70;99.90
36442;DHT22;73131;50.820;16.274;2024-03-25T03:38:06;4.70;99.90
36442;DHT22;73131;50.820;16.274;2024-03-25T03:41:10;4.70;99.90
36442;DHT22;73131;50.820;16.274;2024-03-25T03:44:13;4.80;99.90
36442;DHT22;73131;50.820;16.274;2024-03-25T03:47:17;4.80;99.90
36442;DHT22;73131;50.820;16.274;2024-03-25T03:50:20;4.80;99.90
36442;DHT22;73131;50.820;16.274;2024-03-25T03:53:23;4.80;99.90
36442;DHT22;73131;50.820;16.274;2024-03-25T03:56:24;4.80;99.90
36442;DHT22;73131;50.820;16.274;2024-03-25T03:59:26;4.70;99.90
36442;DHT22;73131;50.820;16.274;2024-03-25T04:02:28;4.70;99.90
36442;DHT22;73131;50.820;16.274;2024-03-25T04:05:34;4.70;99.90
36442;DHT22;73131;50.820;16.274;2024-03-25T04:08:35;4.70;99.90
36442;DHT22;73131;50.820;16.274;2024-03-25T04:11:39;4.60;99.90
36442;DHT22;73131;50.820;16.274;2024-03-25T04:14:39;4.60;99.90
36442;DHT22;73131;50.820;16.274;2024-03-25T04:17:44;4.50;99.90
36442;DHT22;73131;50.820;16.274;2024-03-25T04:20:45;4.50;99.90
36442;DHT22;73131;50.820;16.274;2024-03-25T04:23:46;4.50;99.90
36442;DHT22;73131;50.820;16.274;2024-03-25T04:26:49;4.50;99.90
36442;DHT22;73131;50.820;16.274;2024-03-25T04:29:50;4.40;99.90
36442;DHT22;73131;50.820;16.274;2024-03-25T04:32:51;4.40;99.90
36442;DHT22;73131;50.820;16.274;2024-03-25T04:35:53;4.40;99.90
36442;DHT22;73131;50.820;16.274;2024-03-25T04:38:56;4.40;99.90
36442;DHT22;73131;50.820;16.274;2024-03-25T04:41:58;4.40;99.90
36442;DHT22;73131;50.820;16.274;2024-03-25T04:44:58;4.40;99.90
36442;DHT22;73131;50.820;16.274;2024-03-25T04:48:02;4.40;99.90
36442;DHT22;73131;50.820;16.274;2024-03-25T04:51:03;4.40;99.90
36442;DHT22;73131;50.820;16.274;2024-03-25T04:54:06;4.40;99.90
36442;DHT22;73131;50.820;16.274;2024-03-25T04:57:07;4.40;99.90
36442;DHT22;73131;50.820;16.274;2024-03-25T05:00:08;4.40;99.90
36442;DHT22;73131;50.820;16.274;2024-03-25T05:03:11;4.40;99.90
36442;DHT22;73131;50.820;16.274;2024-03-25T05:06:15;4.40;99.90
36442;DHT22;73131;50.820;16.274;2024-03-25T05:09:16;4.40;99.90
36442;DHT22;73131;50.820;16.274;2024-03-25T05:12:19;4.40;99.90
36442;DHT22;73131;50.820;16.274;2024-03-25T05:15:21;4.40;99.90
36442;DHT22;73131;50.820;16.274;2024-03-25T05:18:24;4.40;99.90
36442;DHT22;73131;50.820;16.274;2024-03-25T05:21:27;4.40;99.90
36442;DHT22;73131;50.820;16.274;2024-03-25T05:24:28;4.40;99.90
36442;DHT22;73131;50.820;16.274;2024-03-25T05:27:31;4.40;99.90
36442;DHT22;73131;50.820;16.274;2024-03-25T05:30:32;4.40;99.90
36442;DHT22;73131;50.820;16.274;2024-03-25T05:33:36;4.30;99.90
36442;DHT22;73131;50.820;16.274;2024-03-25T05:36:38;4.30;99.90
36442;DHT22;73131;50.820;16.274;2024-03-25T05:39:39;4.30;99.90
36442;DHT22;73131;50.820;16.274;2024-03-25T05:42:40;4.40;99.90
36442;DHT22;73131;50.820;16.274;2024-03-25T05:45:49;4.40;99.90
36442;DHT22;73131;50.820;16.274;2024-03-25T05:48:50;4.40;99.90
36442;DHT22;73131;50.820;16.274;2024-03-25T05:51:51;4.50;99.90
36442;DHT22;73131;50.820;16.274;2024-03-25T05:54:55;4.50;99.90
36442;DHT22;73131;50.820;16.274;2024-03-25T05:57:58;4.60;99.90
36442;DHT22;73131;50.820;16.274;2024-03-25T06:01:01;4.70;99.90
36442;DHT22;73131;50.820;16.274;2024-03-25T06:04:04;4.70;99.90
36442;DHT22;73131;50.820;16.274;2024-03-25T06:07:05;4.80;99.90
36442;DHT22;73131;50.820;16.274;2024-03-25T06:10:07;4.90;99.90
36442;DHT22;73131;50.820;16.274;2024-03-25T06:13:13;5.00;99.90
36442;DHT22;73131;50.820;16.274;2024-03-25T06:16:14;5.20;99.90
36442;DHT22;73131;50.820;16.274;2024-03-25T06:19:15;5.20;99.90
36442;DHT22;73131;50.820;16.274;2024-03-25T06:22:16;5.30;99.90
36442;DHT22;73131;50.820;16.274;2024-03-25T06:25:19;5.30;99.90
36442;DHT22;73131;50.820;16.274;2024-03-25T06:28:20;5.40;99.90
36442;DHT22;73131;50.820;16.274;2024-03-25T06:31:22;5.50;99.90
36442;DHT22;73131;50.820;16.274;2024-03-25T06:34:41;5.60;99.90
36442;DHT22;73131;50.820;16.274;2024-03-25T06:37:43;5.60;99.90
36442;DHT22;73131;50.820;16.274;2024-03-25T06:40:45;5.60;99.90
36442;DHT22;73131;50.820;16.274;2024-03-25T06:43:48;5.80;99.90
36442;DHT22;73131;50.820;16.274;2024-03-25T06:46:54;6.00;99.90
36442;DHT22;73131;50.820;16.274;2024-03-25T06:49:58;6.30;99.90
36442;DHT22;73131;50.820;16.274;2024-03-25T06:52:59;6.70;99.90
36442;DHT22;73131;50.820;16.274;2024-03-25T06:56:02;6.90;99.90
36442;DHT22;73131;50.820;16.274;2024-03-25T06:59:03;6.90;99.90
36442;DHT22;73131;50.820;16.274;2024-03-25T07:02:04;6.90;99.90
36442;DHT22;73131;50.820;16.274;2024-03-25T07:05:08;6.90;99.90
36442;DHT22;73131;50.820;16.274;2024-03-25T07:08:09;6.80;99.90
36442;DHT22;73131;50.820;16.274;2024-03-25T07:11:10;6.80;99.90
36442;DHT22;73131;50.820;16.274;2024-03-25T07:14:11;6.70;99.90
36442;DHT22;73131;50.820;16.274;2024-03-25T07:17:14;6.80;99.90
36442;DHT22;73131;50.820;16.274;2024-03-25T07:20:15;6.90;99.90
36442;DHT22;73131;50.820;16.274;2024-03-25T07:23:18;6.90;99.90
36442;DHT22;73131;50.820;16.274;2024-03-25T07:26:20;7.00;99.90
36442;DHT22;73131;50.820;16.274;2024-03-25T07:29:23;7.10;99.90
36442;DHT22;73131;50.820;16.274;2024-03-25T07:32:27;7.20;99.90
36442;DHT22;73131;50.820;16.274;2024-03-25T07:35:30;7.20;99.90
36442;DHT22;73131;50.820;16.274;2024-03-25T07:38:31;7.30;99.90
36442;DHT22;73131;50.820;16.274;2024-03-25T07:41:34;7.20;99.90
36442;DHT22;73131;50.820;16.274;2024-03-25T07:44:35;7.20;99.90
36442;DHT22;73131;50.820;16.274;2024-03-25T07:47:36;7.20;99.90
36442;DHT22;73131;50.820;16.274;2024-03-25T07:50:40;7.20;99.90
36442;DHT22;73131;50.820;16.274;2024-03-25T07:53:40;7.50;99.90
36442;DHT22;73131;50.820;16.274;2024-03-25T07:56:42;7.90;99.90
36442;DHT22;73131;50.820;16.274;2024-03-25T07:59:43;8.60;99.90
36442;DHT22;73131;50.820;16.274;2024-03-25T08:02:46;9.00;99.90
36442;DHT22;73131;50.820;16.274;2024-03-25T08:05:48;9.00;99.90
36442;DHT22;73131;50.820;16.274;2024-03-25T08:08:49;8.80;99.90
36442;DHT22;73131;50.820;16.274;2024-03-25T08:11:49;8.50;99.90
36442;DHT22;73131;50.820;16.274;2024-03-25T08:14:51;8.20;99.90
36442;DHT22;73131;50.820;16.274;2024-03-25T08:17:54;7.90;99.90
36442;DHT22;73131;50.820;16.274;2024-03-25T08:20:55;7.60;99.90
36442;DHT22;73131;50.820;16.274;2024-03-25T08:23:59;7.50;99.90
36442;DHT22;73131;50.820;16.274;2024-03-25T08:27:00;7.20;99.90
36442;DHT22;73131;50.820;16.274;2024-03-25T08:30:03;7.20;99.90
36442;DHT22;73131;50.820;16.274;2024-03-25T08:33:11;7.20;99.90
36442;DHT22;73131;50.820;16.274;2024-03-25T08:36:14;7.20;99.90
36442;DHT22;73131;50.820;16.274;2024-03-25T08:39:17;7.20;99.90
36442;DHT22;73131;50.820;16.274;2024-03-25T08:42:19;7.20;99.90
36442;DHT22;73131;50.820;16.274;2024-03-25T08:45:24;7.10;99.90
36442;DHT22;73131;50.820;16.274;2024-03-25T08:48:25;7.00;99.90
36442;DHT22;73131;50.820;16.274;2024-03-25T08:51:29;7.00;99.90
36442;DHT22;73131;50.820;16.274;2024-03-25T08:54:29;7.20;99.90
36442;DHT22;73131;50.820;16.274;2024-03-25T08:57:30;7.40;99.90
36442;DHT22;73131;50.820;16.274;2024-03-25T09:00:31;7.70;99.90
36442;DHT22;73131;50.820;16.274;2024-03-25T09:03:32;8.00;99.90
36442;DHT22;73131;50.820;16.274;2024-03-25T09:06:34;8.20;99.90
36442;DHT22;73131;50.820;16.274;2024-03-25T09:09:38;8.20;99.90
36442;DHT22;73131;50.820;16.274;2024-03-25T09:12:58;8.20;99.90
36442;DHT22;73131;50.820;16.274;2024-03-25T09:15:59;8.30;99.90
36442;DHT22;73131;50.820;16.274;2024-03-25T09:19:02;8.40;99.90
36442;DHT22;73131;50.820;16.274;2024-03-25T09:22:08;8.50;99.90
36442;DHT22;73131;50.820;16.274;2024-03-25T09:25:09;8.50;99.90
36442;DHT22;73131;50.820;16.274;2024-03-25T09:28:10;8.50;99.90
36442;DHT22;73131;50.820;16.274;2024-03-25T09:31:11;8.70;99.90
36442;DHT22;73131;50.820;16.274;2024-03-25T09:34:17;8.90;99.90
36442;DHT22;73131;50.820;16.274;2024-03-25T09:37:20;9.10;99.90
36442;DHT22;73131;50.820;16.274;2024-03-25T09:40:22;9.30;99.90
36442;DHT22;73131;50.820;16.274;2024-03-25T09:43:32;9.30;99.90
36442;DHT22;73131;50.820;16.274;2024-03-25T09:46:34;9.20;99.90
36442;DHT22;73131;50.820;16.274;2024-03-25T09:49:39;9.10;99.90
36442;DHT22;73131;50.820;16.274;2024-03-25T09:52:41;9.00;99.90
36442;DHT22;73131;50.820;16.274;2024-03-25T09:55:45;8.90;99.90
36442;DHT22;73131;50.820;16.274;2024-03-25T10:01:51;9.20;99.90
36442;DHT22;73131;50.820;16.274;2024-03-25T10:04:52;9.40;99.90
36442;DHT22;73131;50.820;16.274;2024-03-25T10:07:53;9.40;99.90
36442;DHT22;73131;50.820;16.274;2024-03-25T10:10:56;9.40;99.90
36442;DHT22;73131;50.820;16.274;2024-03-25T10:14:03;9.60;99.90
36442;DHT22;73131;50.820;16.274;2024-03-25T10:17:04;10.40;99.90
36442;DHT22;73131;50.820;16.274;2024-03-25T10:20:13;11.50;99.90
36442;DHT22;73131;50.820;16.274;2024-03-25T10:23:14;13.10;99.90
36442;DHT22;73131;50.820;16.274;2024-03-25T10:26:29;13.80;99.90
36442;DHT22;73131;50.820;16.274;2024-03-25T10:29:34;14.00;99.90
36442;DHT22;73131;50.820;16.274;2024-03-25T10:32:37;14.20;99.90
36442;DHT22;73131;50.820;16.274;2024-03-25T10:35:39;13.60;99.90
36442;DHT22;73131;50.820;16.274;2024-03-25T10:38:40;12.80;99.90
36442;DHT22;73131;50.820;16.274;2024-03-25T10:41:45;11.90;99.90
36442;DHT22;73131;50.820;16.274;2024-03-25T10:44:49;11.10;99.90
36442;DHT22;73131;50.820;16.274;2024-03-25T10:47:56;10.50;99.90
36442;DHT22;73131;50.820;16.274;2024-03-25T10:51:03;10.00;99.90
36442;DHT22;73131;50.820;16.274;2024-03-25T10:54:11;9.70;99.90
36442;DHT22;73131;50.820;16.274;2024-03-25T10:57:16;9.40;99.90
36442;DHT22;73131;50.820;16.274;2024-03-25T11:00:22;9.20;99.90
36442;DHT22;73131;50.820;16.274;2024-03-25T11:03:24;9.00;99.90
36442;DHT22;73131;50.820;16.274;2024-03-25T11:06:25;8.70;99.90
36442;DHT22;73131;50.820;16.274;2024-03-25T11:09:29;8.60;99.90
36442;DHT22;73131;50.820;16.274;2024-03-25T11:12:37;8.40;99.90
36442;DHT22;73131;50.820;16.274;2024-03-25T11:15:42;8.40;99.90
36442;DHT22;73131;50.820;16.274;2024-03-25T11:18:53;8.60;99.90
36442;DHT22;73131;50.820;16.274;2024-03-25T11:22:07;8.90;99.90
36442;DHT22;73131;50.820;16.274;2024-03-25T11:25:08;9.10;99.90
36442;DHT22;73131;50.820;16.274;2024-03-25T11:28:14;9.40;99.90
36442;DHT22;73131;50.820;16.274;2024-03-25T11:31:22;9.60;99.90
36442;DHT22;73131;50.820;16.274;2024-03-25T11:34:26;9.80;99.90
36442;DHT22;73131;50.820;16.274;2024-03-25T11:37:27;10.10;99.90
36442;DHT22;73131;50.820;16.274;2024-03-25T11:40:28;10.30;99.90
36442;DHT22;73131;50.820;16.274;2024-03-25T11:43:32;10.40;99.90
36442;DHT22;73131;50.820;16.274;2024-03-25T11:46:39;10.80;99.90
36442;DHT22;73131;50.820;16.274;2024-03-25T11:49:42;11.30;99.90
36442;DHT22;73131;50.820;16.274;2024-03-25T11:52:46;11.50;99.90
36442;DHT22;73131;50.820;16.274;2024-03-25T11:55:47;11.30;99.90
36442;DHT22;73131;50.820;16.274;2024-03-25T11:58:51;11.40;99.90
36442;DHT22;73131;50.820;16.274;2024-03-25T12:01:52;11.60;99.90
36442;DHT22;73131;50.820;16.274;2024-03-25T12:04:53;11.60;99.90
36442;DHT22;73131;50.820;16.274;2024-03-25T12:07:54;11.30;99.90
36442;DHT22;73131;50.820;16.274;2024-03-25T12:11:00;11.10;99.90
36442;DHT22;73131;50.820;16.274;2024-03-25T12:14:21;11.00;99.90
36442;DHT22;73131;50.820;16.274;2024-03-25T12:17:24;10.90;99.90
36442;DHT22;73131;50.820;16.274;2024-03-25T12:20:25;11.10;99.90
36442;DHT22;73131;50.820;16.274;2024-03-25T12:23:31;11.30;99.90
36442;DHT22;73131;50.820;16.274;2024-03-25T12:26:32;11.60;99.90
36442;DHT22;73131;50.820;16.274;2024-03-25T12:29:34;11.70;99.90
36442;DHT22;73131;50.820;16.274;2024-03-25T12:32:41;11.70;99.90
36442;DHT22;73131;50.820;16.274;2024-03-25T12:35:46;11.60;99.90
36442;DHT22;73131;50.820;16.274;2024-03-25T12:38:54;11.60;99.90
36442;DHT22;73131;50.820;16.274;2024-03-25T12:41:56;11.50;99.90
36442;DHT22;73131;50.820;16.274;2024-03-25T12:45:01;11.40;99.90
36442;DHT22;73131;50.820;16.274;2024-03-25T12:48:04;11.30;99.90
36442;DHT22;73131;50.820;16.274;2024-03-25T12:51:12;11.10;99.90
36442;DHT22;73131;50.820;16.274;2024-03-25T12:54:13;10.90;99.90
36442;DHT22;73131;50.820;16.274;2024-03-25T12:57:14;10.70;99.90
36442;DHT22;73131;50.820;16.274;2024-03-25T13:00:16;10.60;99.90
36442;DHT22;73131;50.820;16.274;2024-03-25T13:03:17;10.40;99.90
36442;DHT22;73131;50.820;16.274;2024-03-25T13:06:19;10.20;99.90
36442;DHT22;73131;50.820;16.274;2024-03-25T13:09:22;10.10;99.90
36442;DHT22;73131;50.820;16.274;2024-03-25T13:12:23;10.00;99.90
36442;DHT22;73131;50.820;16.274;2024-03-25T13:15:27;9.90;99.90
36442;DHT22;73131;50.820;16.274;2024-03-25T13:18:31;9.80;99.90
36442;DHT22;73131;50.820;16.274;2024-03-25T13:21:32;9.90;99.90
36442;DHT22;73131;50.820;16.274;2024-03-25T13:24:33;9.80;99.90
36442;DHT22;73131;50.820;16.274;2024-03-25T13:27:34;9.70;99.90
36442;DHT22;73131;50.820;16.274;2024-03-25T13:30:35;9.60;99.90
36442;DHT22;73131;50.820;16.274;2024-03-25T13:33:36;9.50;99.90
36442;DHT22;73131;50.820;16.274;2024-03-25T13:36:40;9.60;99.90
36442;DHT22;73131;50.820;16.274;2024-03-25T13:39:41;9.60;99.90
36442;DHT22;73131;50.820;16.274;2024-03-25T13:42:44;9.50;99.90
36442;DHT22;73131;50.820;16.274;2024-03-25T13:45:47;9.50;99.90
36442;DHT22;73131;50.820;16.274;2024-03-25T13:48:51;9.40;99.90
36442;DHT22;73131;50.820;16.274;2024-03-25T13:52:00;9.20;99.90
36442;DHT22;73131;50.820;16.274;2024-03-25T13:55:03;9.00;99.90
36442;DHT22;73131;50.820;16.274;2024-03-25T13:58:04;8.70;99.90
36442;DHT22;73131;50.820;16.274;2024-03-25T14:01:06;8.40;99.90
36442;DHT22;73131;50.820;16.274;2024-03-25T14:04:10;8.30;99.90
36442;DHT22;73131;50.820;16.274;2024-03-25T14:07:11;8.20;99.90
36442;DHT22;73131;50.820;16.274;2024-03-25T14:10:12;8.10;99.90
36442;DHT22;73131;50.820;16.274;2024-03-25T14:13:16;8.10;99.90
36442;DHT22;73131;50.820;16.274;2024-03-25T14:16:17;8.20;99.90
36442;DHT22;73131;50.820;16.274;2024-03-25T14:19:20;8.30;99.90
36442;DHT22;73131;50.820;16.274;2024-03-25T14:22:24;8.40;99.90
36442;DHT22;73131;50.820;16.274;2024-03-25T14:25:27;8.50;99.90
36442;DHT22;73131;50.820;16.274;2024-03-25T14:28:30;8.60;99.90
36442;DHT22;73131;50.820;16.274;2024-03-25T14:31:31;8.60;99.90
36442;DHT22;73131;50.820;16.274;2024-03-25T14:34:33;8.50;99.90
36442;DHT22;73131;50.820;16.274;2024-03-25T14:37:35;8.40;99.90
36442;DHT22;73131;50.820;16.274;2024-03-25T14:40:39;8.30;99.90
36442;DHT22;73131;50.820;16.274;2024-03-25T14:43:40;8.30;99.90
36442;DHT22;73131;50.820;16.274;2024-03-25T14:46:41;8.40;99.90
36442;DHT22;73131;50.820;16.274;2024-03-25T14:49:44;8.50;99.90
36442;DHT22;73131;50.820;16.274;2024-03-25T14:52:45;8.60;99.90
36442;DHT22;73131;50.820;16.274;2024-03-25T14:55:47;8.70;99.90
36442;DHT22;73131;50.820;16.274;2024-03-25T14:58:50;8.60;99.90
36442;DHT22;73131;50.820;16.274;2024-03-25T15:01:51;8.50;99.90
36442;DHT22;73131;50.820;16.274;2024-03-25T15:04:57;8.50;99.90
36442;DHT22;73131;50.820;16.274;2024-03-25T15:08:00;8.40;99.90
36442;DHT22;73131;50.820;16.274;2024-03-25T15:11:03;8.40;99.90
36442;DHT22;73131;50.820;16.274;2024-03-25T15:14:05;8.60;99.90
36442;DHT22;73131;50.820;16.274;2024-03-25T15:17:06;8.70;99.90
36442;DHT22;73131;50.820;16.274;2024-03-25T15:20:11;8.80;99.90
36442;DHT22;73131;50.820;16.274;2024-03-25T15:23:12;9.00;99.90
36442;DHT22;73131;50.820;16.274;2024-03-25T15:26:15;9.00;99.90
36442;DHT22;73131;50.820;16.274;2024-03-25T15:29:16;8.90;99.90
36442;DHT22;73131;50.820;16.274;2024-03-25T15:32:19;8.80;99.90
36442;DHT22;73131;50.820;16.274;2024-03-25T15:35:23;8.80;99.90
36442;DHT22;73131;50.820;16.274;2024-03-25T15:38:27;8.70;99.90
36442;DHT22;73131;50.820;16.274;2024-03-25T15:41:30;8.70;99.90
36442;DHT22;73131;50.820;16.274;2024-03-25T15:44:31;8.70;99.90
36442;DHT22;73131;50.820;16.274;2024-03-25T15:47:32;8.60;99.90
36442;DHT22;73131;50.820;16.274;2024-03-25T15:50:33;8.60;99.90
36442;DHT22;73131;50.820;16.274;2024-03-25T15:53:34;8.60;99.90
36442;DHT22;73131;50.820;16.274;2024-03-25T15:56:40;8.60;99.90
36442;DHT22;73131;50.820;16.274;2024-03-25T15:59:43;8.60;99.90
36442;DHT22;73131;50.820;16.274;2024-03-25T16:02:44;8.50;99.90
36442;DHT22;73131;50.820;16.274;2024-03-25T16:05:45;8.50;99.90
36442;DHT22;73131;50.820;16.274;2024-03-25T16:08:51;8.40;99.90
36442;DHT22;73131;50.820;16.274;2024-03-25T16:11:55;8.30;99.90
36442;DHT22;73131;50.820;16.274;2024-03-25T16:15:00;8.30;99.90
36442;DHT22;73131;50.820;16.274;2024-03-25T16:18:01;8.30;99.90
36442;DHT22;73131;50.820;16.274;2024-03-25T16:21:16;8.20;99.90
36442;DHT22;73131;50.820;16.274;2024-03-25T16:24:19;8.20;99.90
36442;DHT22;73131;50.820;16.274;2024-03-25T16:27:23;8.10;99.90
36442;DHT22;73131;50.820;16.274;2024-03-25T16:30:29;8.10;99.90
36442;DHT22;73131;50.820;16.274;2024-03-25T16:33:30;8.00;99.90
36442;DHT22;73131;50.820;16.274;2024-03-25T16:36:36;8.00;99.90
36442;DHT22;73131;50.820;16.274;2024-03-25T16:39:37;8.00;99.90
36442;DHT22;73131;50.820;16.274;2024-03-25T16:42:40;8.00;99.90
36442;DHT22;73131;50.820;16.274;2024-03-25T16:45:43;8.00;99.90
36442;DHT22;73131;50.820;16.274;2024-03-25T16:48:44;7.90;99.90
36442;DHT22;73131;50.820;16.274;2024-03-25T16:51:48;7.90;99.90
36442;DHT22;73131;50.820;16.274;2024-03-25T16:54:49;7.80;99.90
36442;DHT22;73131;50.820;16.274;2024-03-25T16:57:53;7.70;99.90
36442;DHT22;73131;50.820;16.274;2024-03-25T17:00:54;7.70;99.90
36442;DHT22;73131;50.820;16.274;2024-03-25T17:03:55;7.60;99.90
36442;DHT22;73131;50.820;16.274;2024-03-25T17:06:56;7.50;99.90
36442;DHT22;73131;50.820;16.274;2024-03-25T17:10:00;7.40;99.90
36442;DHT22;73131;50.820;16.274;2024-03-25T17:13:01;7.30;99.90
36442;DHT22;73131;50.820;16.274;2024-03-25T17:16:05;7.20;99.90
36442;DHT22;73131;50.820;16.274;2024-03-25T17:19:07;7.10;99.90
36442;DHT22;73131;50.820;16.274;2024-03-25T17:22:08;7.00;99.90
36442;DHT22;73131;50.820;16.274;2024-03-25T17:25:09;7.00;99.90
36442;DHT22;73131;50.820;16.274;2024-03-25T17:28:10;6.90;99.90
36442;DHT22;73131;50.820;16.274;2024-03-25T17:31:13;6.80;99.90
36442;DHT22;73131;50.820;16.274;2024-03-25T17:34:17;6.70;99.90
36442;DHT22;73131;50.820;16.274;2024-03-25T17:37:19;6.60;99.90
36442;DHT22;73131;50.820;16.274;2024-03-25T17:40:21;6.50;99.90
36442;DHT22;73131;50.820;16.274;2024-03-25T17:43:24;6.40;99.90
36442;DHT22;73131;50.820;16.274;2024-03-25T17:46:25;6.40;99.90
36442;DHT22;73131;50.820;16.274;2024-03-25T17:49:28;6.30;99.90
36442;DHT22;73131;50.820;16.274;2024-03-25T17:52:30;6.20;99.90
36442;DHT22;73131;50.820;16.274;2024-03-25T17:55:34;6.20;99.90
36442;DHT22;73131;50.820;16.274;2024-03-25T17:58:35;6.10;99.90
36442;DHT22;73131;50.820;16.274;2024-03-25T18:01:36;6.10;99.90
36442;DHT22;73131;50.820;16.274;2024-03-25T18:04:38;6.00;99.90
36442;DHT22;73131;50.820;16.274;2024-03-25T18:07:39;6.00;99.90
36442;DHT22;73131;50.820;16.274;2024-03-25T18:10:48;6.00;99.90
36442;DHT22;73131;50.820;16.274;2024-03-25T18:13:49;5.90;99.90
36442;DHT22;73131;50.820;16.274;2024-03-25T18:16:50;5.90;99.90
36442;DHT22;73131;50.820;16.274;2024-03-25T18:19:51;5.80;99.90
36442;DHT22;73131;50.820;16.274;2024-03-25T18:22:54;5.70;99.90
36442;DHT22;73131;50.820;16.274;2024-03-25T18:25:57;5.60;99.90
36442;DHT22;73131;50.820;16.274;2024-03-25T18:28:59;5.50;99.90
36442;DHT22;73131;50.820;16.274;2024-03-25T18:31:59;5.50;99.90
36442;DHT22;73131;50.820;16.274;2024-03-25T18:35:03;5.50;99.90
36442;DHT22;73131;50.820;16.274;2024-03-25T18:38:07;5.40;99.90
36442;DHT22;73131;50.820;16.274;2024-03-25T18:41:08;5.40;99.90
36442;DHT22;73131;50.820;16.274;2024-03-25T18:44:11;5.40;99.90
36442;DHT22;73131;50.820;16.274;2024-03-25T18:47:17;5.40;99.90
36442;DHT22;73131;50.820;16.274;2024-03-25T18:50:18;5.40;99.90
36442;DHT22;73131;50.820;16.274;2024-03-25T18:53:22;5.40;99.90
36442;DHT22;73131;50.820;16.274;2024-03-25T18:56:23;5.40;99.90
36442;DHT22;73131;50.820;16.274;2024-03-25T18:59:24;5.40;99.90
36442;DHT22;73131;50.820;16.274;2024-03-25T19:02:28;5.30;99.90
36442;DHT22;73131;50.820;16.274;2024-03-25T19:05:30;5.20;99.90
36442;DHT22;73131;50.820;16.274;2024-03-25T19:08:35;5.20;99.90
36442;DHT22;73131;50.820;16.274;2024-03-25T19:11:41;5.20;99.90
36442;DHT22;73131;50.820;16.274;2024-03-25T19:14:46;5.20;99.90
36442;DHT22;73131;50.820;16.274;2024-03-25T19:17:47;5.10;99.90